PWSweather.com
Personal Weather Stations
Station Observations
PICKERING
North Yorkshire, PickeringGB

North YorkshirePickeringGB

Lat: 54.2494, Lon: -0.7725

Elevation: 192

Station Type: Oregon Scientific WMR100

http://www.yorkshirewalker.co.uk/weather/

High Low Average
Temperature 41.2°F5.1°C 18.1°F-7.7°C 26.9°F-2.8°C
Dew Point 33.8°F1.0°C 12.2°F-11.0°C 20.3°F-6.5°C
Winds 3.9 mph 6.3 kmh Calm Calm 1.0 mph ENE1.6 kmh ENE
Wind Gusts 6.5 mph10.5 kmh -- 2.0 mph3.2 kmh
Humidity 82% 72% 79%
Pressure 28.97 in981.0 mb 28.62 in969.2 mb -
Precipitation 0.00 in0.0 mm - -
Hour Temp Dew Point Humidity Winds Wind Gusts Pressure Precip Precip Rate Daily Precip Total
12:00 AM 24.4°F-4.2°C 19.4°F-7.0°C 81% 0.2 mph NE0.3 kmh NE 1.3 mph2.1 kmh 28.97 in981.0 mb 0.00 in0.0 mm 0.00 in0.0 mm 0.00 in0.0 mm
12:05 AM 24.3°F-4.3°C 17.6°F-8.0°C 81% Calm Calm -- 28.97 in981.0 mb 0.00 in0.0 mm 0.00 in0.0 mm 0.00 in0.0 mm
12:10 AM 24.1°F-4.4°C 17.6°F-8.0°C 81% Calm Calm -- 28.97 in981.0 mb 0.00 in0.0 mm 0.00 in0.0 mm 0.00 in0.0 mm
12:15 AM 24.3°F-4.3°C 17.6°F-8.0°C 81% Calm Calm -- 28.97 in981.0 mb 0.00 in0.0 mm 0.00 in0.0 mm 0.00 in0.0 mm
12:20 AM 24.3°F-4.3°C 17.6°F-8.0°C 81% Calm Calm -- 28.97 in981.0 mb 0.00 in0.0 mm 0.00 in0.0 mm 0.00 in0.0 mm
12:25 AM 23.9°F-4.5°C 17.6°F-8.0°C 81% Calm Calm -- 28.97 in981.0 mb 0.00 in0.0 mm 0.00 in0.0 mm 0.00 in0.0 mm
12:30 AM 23.7°F-4.6°C 17.6°F-8.0°C 80% 0.1 mph NE0.2 kmh NE 0.9 mph1.4 kmh 28.97 in981.0 mb 0.00 in0.0 mm 0.00 in0.0 mm 0.00 in0.0 mm
12:35 AM 23.9°F-4.5°C 17.6°F-8.0°C 81% 0.4 mph NE0.6 kmh NE 0.9 mph1.4 kmh 28.97 in981.0 mb 0.00 in0.0 mm 0.00 in0.0 mm 0.00 in0.0 mm
12:40 AM 23.7°F-4.6°C 17.6°F-8.0°C 81% 0.4 mph NE0.6 kmh NE 0.9 mph1.4 kmh 28.97 in981.0 mb 0.00 in0.0 mm 0.00 in0.0 mm 0.00 in0.0 mm
12:45 AM 23.7°F-4.6°C 17.6°F-8.0°C 81% 0.2 mph NE0.3 kmh NE 0.9 mph1.4 kmh 28.97 in981.0 mb 0.00 in0.0 mm 0.00 in0.0 mm 0.00 in0.0 mm
12:50 AM 23.7°F-4.6°C 17.6°F-8.0°C 81% 0.4 mph N0.6 kmh N 1.1 mph1.8 kmh 28.97 in981.0 mb 0.00 in0.0 mm 0.00 in0.0 mm 0.00 in0.0 mm
12:55 AM 23.5°F-4.7°C 17.6°F-8.0°C 81% 0.4 mph N0.6 kmh N 1.1 mph1.8 kmh 28.97 in981.0 mb 0.00 in0.0 mm 0.00 in0.0 mm 0.00 in0.0 mm
01:00 AM 23.5°F-4.7°C 17.6°F-8.0°C 81% 0.1 mph NNE0.2 kmh NNE 1.1 mph1.8 kmh 28.94 in980.0 mb 0.00 in0.0 mm 0.00 in0.0 mm 0.00 in0.0 mm
01:05 AM 23.4°F-4.8°C 17.6°F-8.0°C 81% Calm Calm -- 28.94 in980.0 mb 0.00 in0.0 mm 0.00 in0.0 mm 0.00 in0.0 mm
01:10 AM 23.4°F-4.8°C 17.6°F-8.0°C 81% 0.4 mph E0.6 kmh E 1.3 mph2.1 kmh 28.94 in980.0 mb 0.00 in0.0 mm 0.00 in0.0 mm 0.00 in0.0 mm
01:15 AM 23.0°F-5.0°C 15.8°F-9.0°C 81% 0.5 mph E0.8 kmh E 1.3 mph2.1 kmh 28.97 in981.0 mb 0.00 in0.0 mm 0.00 in0.0 mm 0.00 in0.0 mm
01:20 AM 23.0°F-5.0°C 15.8°F-9.0°C 81% 0.2 mph E0.3 kmh E 1.3 mph2.1 kmh 28.97 in981.0 mb 0.00 in0.0 mm 0.00 in0.0 mm 0.00 in0.0 mm
01:25 AM 22.6°F-5.2°C 15.8°F-9.0°C 80% 0.1 mph E0.2 kmh E 1.3 mph2.1 kmh 28.97 in981.0 mb 0.00 in0.0 mm 0.00 in0.0 mm 0.00 in0.0 mm
01:30 AM 22.3°F-5.4°C 15.8°F-9.0°C 80% 0.1 mph E0.2 kmh E 0.9 mph1.4 kmh 28.97 in981.0 mb 0.00 in0.0 mm 0.00 in0.0 mm 0.00 in0.0 mm
01:35 AM 22.5°F-5.3°C 15.8°F-9.0°C 80% 0.4 mph ENE0.6 kmh ENE 1.6 mph2.6 kmh 28.97 in981.0 mb 0.00 in0.0 mm 0.00 in0.0 mm 0.00 in0.0 mm
01:40 AM 22.5°F-5.3°C 15.8°F-9.0°C 80% 0.3 mph ENE0.5 kmh ENE 1.6 mph2.6 kmh 28.97 in981.0 mb 0.00 in0.0 mm 0.00 in0.0 mm 0.00 in0.0 mm
01:45 AM 22.3°F-5.4°C 15.8°F-9.0°C 80% 0.1 mph ENE0.2 kmh ENE 0.9 mph1.4 kmh 28.97 in981.0 mb 0.00 in0.0 mm 0.00 in0.0 mm 0.00 in0.0 mm
01:50 AM 22.5°F-5.3°C 15.8°F-9.0°C 80% 0.1 mph ENE0.2 kmh ENE 0.9 mph1.4 kmh 28.97 in981.0 mb 0.00 in0.0 mm 0.00 in0.0 mm 0.00 in0.0 mm
01:55 AM 22.1°F-5.5°C 15.8°F-9.0°C 80% Calm Calm -- 28.97 in981.0 mb 0.00 in0.0 mm 0.00 in0.0 mm 0.00 in0.0 mm
02:00 AM 21.9°F-5.6°C 15.8°F-9.0°C 80% Calm Calm -- 28.77 in974.3 mb 0.00 in0.0 mm 0.00 in0.0 mm 0.00 in0.0 mm
02:05 AM 21.9°F-5.6°C 15.8°F-9.0°C 80% Calm Calm -- 28.77 in974.3 mb 0.00 in0.0 mm 0.00 in0.0 mm 0.00 in0.0 mm
02:10 AM 22.1°F-5.5°C 15.8°F-9.0°C 80% Calm Calm -- 28.77 in974.3 mb 0.00 in0.0 mm 0.00 in0.0 mm 0.00 in0.0 mm
02:15 AM 21.9°F-5.6°C 15.8°F-9.0°C 80% Calm Calm -- 28.94 in980.0 mb 0.00 in0.0 mm 0.00 in0.0 mm 0.00 in0.0 mm
02:20 AM 21.7°F-5.7°C 15.8°F-9.0°C 80% 0.1 mph ENE0.2 kmh ENE 1.1 mph1.8 kmh 28.94 in980.0 mb 0.00 in0.0 mm 0.00 in0.0 mm 0.00 in0.0 mm
02:25 AM 21.9°F-5.6°C 15.8°F-9.0°C 80% 0.2 mph ENE0.3 kmh ENE 1.1 mph1.8 kmh 28.94 in980.0 mb 0.00 in0.0 mm 0.00 in0.0 mm 0.00 in0.0 mm
02:30 AM 21.7°F-5.7°C 15.8°F-9.0°C 80% 0.3 mph NE0.5 kmh NE 1.1 mph1.8 kmh 28.97 in981.0 mb 0.00 in0.0 mm 0.00 in0.0 mm 0.00 in0.0 mm
02:35 AM 21.6°F-5.8°C 15.8°F-9.0°C 80% 0.3 mph NE0.5 kmh NE 1.1 mph1.8 kmh 28.97 in981.0 mb 0.00 in0.0 mm 0.00 in0.0 mm 0.00 in0.0 mm
02:40 AM 21.7°F-5.7°C 15.8°F-9.0°C 80% 0.5 mph ENE0.8 kmh ENE 1.6 mph2.6 kmh 28.97 in981.0 mb 0.00 in0.0 mm 0.00 in0.0 mm 0.00 in0.0 mm
02:45 AM 21.7°F-5.7°C 15.8°F-9.0°C 80% 0.9 mph ENE1.4 kmh ENE 2.0 mph3.2 kmh 28.94 in980.0 mb 0.00 in0.0 mm 0.00 in0.0 mm 0.00 in0.0 mm
02:50 AM 21.7°F-5.7°C 15.8°F-9.0°C 80% 0.6 mph NE1.0 kmh NE 2.0 mph3.2 kmh 28.94 in980.0 mb 0.00 in0.0 mm 0.00 in0.0 mm 0.00 in0.0 mm
02:55 AM 21.7°F-5.7°C 15.8°F-9.0°C 80% 0.1 mph E0.2 kmh E 0.9 mph1.4 kmh 28.94 in980.0 mb 0.00 in0.0 mm 0.00 in0.0 mm 0.00 in0.0 mm
03:00 AM 21.6°F-5.8°C 15.8°F-9.0°C 80% 0.3 mph SW0.5 kmh SW 2.0 mph3.2 kmh 28.97 in981.0 mb 0.00 in0.0 mm 0.00 in0.0 mm 0.00 in0.0 mm
03:05 AM 21.4°F-5.9°C 15.8°F-9.0°C 80% 0.2 mph WSW0.3 kmh WSW 2.0 mph3.2 kmh 28.97 in981.0 mb 0.00 in0.0 mm 0.00 in0.0 mm 0.00 in0.0 mm
03:10 AM 21.4°F-5.9°C 15.8°F-9.0°C 80% Calm Calm -- 28.97 in981.0 mb 0.00 in0.0 mm 0.00 in0.0 mm 0.00 in0.0 mm
03:15 AM 21.2°F-6.0°C 14.0°F-10.0°C 80% Calm Calm -- 28.97 in981.0 mb 0.00 in0.0 mm 0.00 in0.0 mm 0.00 in0.0 mm
03:20 AM 21.4°F-5.9°C 15.8°F-9.0°C 80% Calm Calm -- 28.97 in981.0 mb 0.00 in0.0 mm 0.00 in0.0 mm 0.00 in0.0 mm
03:25 AM 21.2°F-6.0°C 14.0°F-10.0°C 80% Calm Calm -- 28.97 in981.0 mb 0.00 in0.0 mm 0.00 in0.0 mm 0.00 in0.0 mm
03:30 AM 20.8°F-6.2°C 14.0°F-10.0°C 80% Calm Calm -- 28.97 in981.0 mb 0.00 in0.0 mm 0.00 in0.0 mm 0.00 in0.0 mm
03:35 AM 21.2°F-6.0°C 14.0°F-10.0°C 80% 0.3 mph NE0.5 kmh NE 2.2 mph3.5 kmh 28.97 in981.0 mb 0.00 in0.0 mm 0.00 in0.0 mm 0.00 in0.0 mm
03:40 AM 21.2°F-6.0°C 14.0°F-10.0°C 80% 0.7 mph NE1.1 kmh NE 2.2 mph3.5 kmh 28.97 in981.0 mb 0.00 in0.0 mm 0.00 in0.0 mm 0.00 in0.0 mm
03:45 AM 21.0°F-6.1°C 14.0°F-10.0°C 80% 0.7 mph NE1.1 kmh NE 1.6 mph2.6 kmh 28.94 in980.0 mb 0.00 in0.0 mm 0.00 in0.0 mm 0.00 in0.0 mm
03:50 AM 21.0°F-6.1°C 14.0°F-10.0°C 80% 0.4 mph NE0.6 kmh NE 1.6 mph2.6 kmh 28.94 in980.0 mb 0.00 in0.0 mm 0.00 in0.0 mm 0.00 in0.0 mm
03:55 AM 20.8°F-6.2°C 14.0°F-10.0°C 80% 0.2 mph NE0.3 kmh NE 1.6 mph2.6 kmh 28.94 in980.0 mb 0.00 in0.0 mm 0.00 in0.0 mm 0.00 in0.0 mm
04:00 AM 20.7°F-6.3°C 14.0°F-10.0°C 80% Calm Calm -- 28.94 in980.0 mb 0.00 in0.0 mm 0.00 in0.0 mm 0.00 in0.0 mm
04:05 AM 20.5°F-6.4°C 14.0°F-10.0°C 80% Calm Calm -- 28.94 in980.0 mb 0.00 in0.0 mm 0.00 in0.0 mm 0.00 in0.0 mm
04:10 AM 20.7°F-6.3°C 14.0°F-10.0°C 80% Calm Calm -- 28.94 in980.0 mb 0.00 in0.0 mm 0.00 in0.0 mm 0.00 in0.0 mm
04:15 AM 20.3°F-6.5°C 14.0°F-10.0°C 80% 0.1 mph ESE0.2 kmh ESE 1.1 mph1.8 kmh 28.94 in980.0 mb 0.00 in0.0 mm 0.00 in0.0 mm 0.00 in0.0 mm
04:20 AM 19.9°F-6.7°C 14.0°F-10.0°C 79% 0.1 mph ESE0.2 kmh ESE 1.1 mph1.8 kmh 28.94 in980.0 mb 0.00 in0.0 mm 0.00 in0.0 mm 0.00 in0.0 mm
04:25 AM 19.9°F-6.7°C 14.0°F-10.0°C 79% Calm Calm -- 28.94 in980.0 mb 0.00 in0.0 mm 0.00 in0.0 mm 0.00 in0.0 mm
04:30 AM 20.5°F-6.4°C 14.0°F-10.0°C 79% 0.2 mph E0.3 kmh E 0.9 mph1.4 kmh 28.94 in980.0 mb 0.00 in0.0 mm 0.00 in0.0 mm 0.00 in0.0 mm
04:35 AM 20.1°F-6.6°C 14.0°F-10.0°C 79% 0.2 mph E0.3 kmh E 0.9 mph1.4 kmh 28.94 in980.0 mb 0.00 in0.0 mm 0.00 in0.0 mm 0.00 in0.0 mm
04:40 AM 20.1°F-6.6°C 14.0°F-10.0°C 79% Calm Calm -- 28.94 in980.0 mb 0.00 in0.0 mm 0.00 in0.0 mm 0.00 in0.0 mm
04:45 AM 19.9°F-6.7°C 14.0°F-10.0°C 79% Calm Calm -- 28.94 in980.0 mb 0.00 in0.0 mm 0.00 in0.0 mm 0.00 in0.0 mm
04:50 AM 19.9°F-6.7°C 14.0°F-10.0°C 79% Calm Calm -- 28.94 in980.0 mb 0.00 in0.0 mm 0.00 in0.0 mm 0.00 in0.0 mm
04:55 AM 19.9°F-6.7°C 14.0°F-10.0°C 79% Calm Calm -- 28.94 in980.0 mb 0.00 in0.0 mm 0.00 in0.0 mm 0.00 in0.0 mm
05:00 AM 19.8°F-6.8°C 12.2°F-11.0°C 79% Calm Calm -- 28.94 in980.0 mb 0.00 in0.0 mm 0.00 in0.0 mm 0.00 in0.0 mm
05:05 AM 19.8°F-6.8°C 12.2°F-11.0°C 79% Calm Calm -- 28.94 in980.0 mb 0.00 in0.0 mm 0.00 in0.0 mm 0.00 in0.0 mm
05:10 AM 19.8°F-6.8°C 12.2°F-11.0°C 79% 0.3 mph NE0.5 kmh NE 2.0 mph3.2 kmh 28.94 in980.0 mb 0.00 in0.0 mm 0.00 in0.0 mm 0.00 in0.0 mm
05:15 AM 19.9°F-6.7°C 14.0°F-10.0°C 79% 0.9 mph NE1.4 kmh NE 2.7 mph4.3 kmh 28.94 in980.0 mb 0.00 in0.0 mm 0.00 in0.0 mm 0.00 in0.0 mm
05:20 AM 19.9°F-6.7°C 14.0°F-10.0°C 79% 0.8 mph NE1.3 kmh NE 2.7 mph4.3 kmh 28.94 in980.0 mb 0.00 in0.0 mm 0.00 in0.0 mm 0.00 in0.0 mm
05:25 AM 19.8°F-6.8°C 12.2°F-11.0°C 79% 1.1 mph NE1.8 kmh NE 2.7 mph4.3 kmh 28.94 in980.0 mb 0.00 in0.0 mm 0.00 in0.0 mm 0.00 in0.0 mm
05:30 AM 19.8°F-6.8°C 12.2°F-11.0°C 79% 1.1 mph NE1.8 kmh NE 2.7 mph4.3 kmh 28.94 in980.0 mb 0.00 in0.0 mm 0.00 in0.0 mm 0.00 in0.0 mm
05:35 AM 19.8°F-6.8°C 12.2°F-11.0°C 79% 0.2 mph NE0.3 kmh NE 1.1 mph1.8 kmh 28.94 in980.0 mb 0.00 in0.0 mm 0.00 in0.0 mm 0.00 in0.0 mm
05:40 AM 19.6°F-6.9°C 12.2°F-11.0°C 79% 0.6 mph NE1.0 kmh NE 3.1 mph5.0 kmh 28.94 in980.0 mb 0.00 in0.0 mm 0.00 in0.0 mm 0.00 in0.0 mm
05:45 AM 19.6°F-6.9°C 12.2°F-11.0°C 79% 1.3 mph NE2.1 kmh NE 3.1 mph5.0 kmh 28.94 in980.0 mb 0.00 in0.0 mm 0.00 in0.0 mm 0.00 in0.0 mm
05:50 AM 19.8°F-6.8°C 12.2°F-11.0°C 79% 1.7 mph NE2.7 kmh NE 3.1 mph5.0 kmh 28.94 in980.0 mb 0.00 in0.0 mm 0.00 in0.0 mm 0.00 in0.0 mm
05:55 AM 19.8°F-6.8°C 12.2°F-11.0°C 79% 0.8 mph NE1.3 kmh NE 2.5 mph4.0 kmh 28.94 in980.0 mb 0.00 in0.0 mm 0.00 in0.0 mm 0.00 in0.0 mm
06:00 AM 19.8°F-6.8°C 12.2°F-11.0°C 79% 0.6 mph NE1.0 kmh NE 2.0 mph3.2 kmh 28.94 in980.0 mb 0.00 in0.0 mm 0.00 in0.0 mm 0.00 in0.0 mm
06:05 AM 19.6°F-6.9°C 12.2°F-11.0°C 79% 0.9 mph NE1.4 kmh NE 2.0 mph3.2 kmh 28.94 in980.0 mb 0.00 in0.0 mm 0.00 in0.0 mm 0.00 in0.0 mm
06:10 AM 19.4°F-7.0°C 12.2°F-11.0°C 79% 0.3 mph NE0.5 kmh NE 2.0 mph3.2 kmh 28.94 in980.0 mb 0.00 in0.0 mm 0.00 in0.0 mm 0.00 in0.0 mm
06:15 AM 19.0°F-7.2°C 12.2°F-11.0°C 79% Calm Calm -- 28.94 in980.0 mb 0.00 in0.0 mm 0.00 in0.0 mm 0.00 in0.0 mm
06:20 AM 18.7°F-7.4°C 12.2°F-11.0°C 79% Calm Calm -- 28.94 in980.0 mb 0.00 in0.0 mm 0.00 in0.0 mm 0.00 in0.0 mm
06:25 AM 18.7°F-7.4°C 12.2°F-11.0°C 79% Calm Calm -- 28.94 in980.0 mb 0.00 in0.0 mm 0.00 in0.0 mm 0.00 in0.0 mm
06:30 AM 18.9°F-7.3°C 12.2°F-11.0°C 79% Calm Calm -- 28.94 in980.0 mb 0.00 in0.0 mm 0.00 in0.0 mm 0.00 in0.0 mm
06:35 AM 18.7°F-7.4°C 12.2°F-11.0°C 79% 0.1 mph NE0.2 kmh NE 1.1 mph1.8 kmh 28.94 in980.0 mb 0.00 in0.0 mm 0.00 in0.0 mm 0.00 in0.0 mm
06:40 AM 18.7°F-7.4°C 12.2°F-11.0°C 79% 0.1 mph NE0.2 kmh NE 1.1 mph1.8 kmh 28.94 in980.0 mb 0.00 in0.0 mm 0.00 in0.0 mm 0.00 in0.0 mm
06:45 AM 18.7°F-7.4°C 12.2°F-11.0°C 79% Calm Calm -- 28.94 in980.0 mb 0.00 in0.0 mm 0.00 in0.0 mm 0.00 in0.0 mm
06:50 AM 18.5°F-7.5°C 12.2°F-11.0°C 79% 0.2 mph NE0.3 kmh NE 2.5 mph4.0 kmh 28.94 in980.0 mb 0.00 in0.0 mm 0.00 in0.0 mm 0.00 in0.0 mm
06:55 AM 18.3°F-7.6°C 12.2°F-11.0°C 79% 0.4 mph NE0.6 kmh NE 2.5 mph4.0 kmh 28.94 in980.0 mb 0.00 in0.0 mm 0.00 in0.0 mm 0.00 in0.0 mm
07:00 AM 18.5°F-7.5°C 12.2°F-11.0°C 79% 0.9 mph NE1.4 kmh NE 2.2 mph3.5 kmh 28.91 in979.0 mb 0.00 in0.0 mm 0.00 in0.0 mm 0.00 in0.0 mm
07:05 AM 18.7°F-7.4°C 12.2°F-11.0°C 79% 0.9 mph NE1.4 kmh NE 2.2 mph3.5 kmh 28.91 in979.0 mb 0.00 in0.0 mm 0.00 in0.0 mm 0.00 in0.0 mm
07:10 AM 18.3°F-7.6°C 12.2°F-11.0°C 79% 0.3 mph NNE0.5 kmh NNE 1.6 mph2.6 kmh 28.91 in979.0 mb 0.00 in0.0 mm 0.00 in0.0 mm 0.00 in0.0 mm
07:15 AM 18.3°F-7.6°C 12.2°F-11.0°C 79% 0.7 mph NE1.1 kmh NE 2.5 mph4.0 kmh 28.91 in979.0 mb 0.00 in0.0 mm 0.00 in0.0 mm 0.00 in0.0 mm
07:20 AM 18.3°F-7.6°C 12.2°F-11.0°C 79% 1.0 mph NE1.6 kmh NE 2.5 mph4.0 kmh 28.91 in979.0 mb 0.00 in0.0 mm 0.00 in0.0 mm 0.00 in0.0 mm
07:25 AM 18.3°F-7.6°C 12.2°F-11.0°C 79% 0.9 mph NE1.4 kmh NE 2.5 mph4.0 kmh 28.91 in979.0 mb 0.00 in0.0 mm 0.00 in0.0 mm 0.00 in0.0 mm
07:30 AM 18.5°F-7.5°C 12.2°F-11.0°C 79% 1.2 mph NE1.9 kmh NE 2.5 mph4.0 kmh 28.91 in979.0 mb 0.00 in0.0 mm 0.00 in0.0 mm 0.00 in0.0 mm
07:35 AM 18.5°F-7.5°C 12.2°F-11.0°C 79% 0.7 mph NE1.1 kmh NE 2.5 mph4.0 kmh 28.91 in979.0 mb 0.00 in0.0 mm 0.00 in0.0 mm 0.00 in0.0 mm
07:40 AM 18.7°F-7.4°C 12.2°F-11.0°C 79% 0.3 mph NE0.5 kmh NE 1.1 mph1.8 kmh 28.91 in979.0 mb 0.00 in0.0 mm 0.00 in0.0 mm 0.00 in0.0 mm
07:45 AM 18.5°F-7.5°C 12.2°F-11.0°C 79% 0.2 mph NE0.3 kmh NE 1.1 mph1.8 kmh 28.91 in979.0 mb 0.00 in0.0 mm 0.00 in0.0 mm 0.00 in0.0 mm
07:50 AM 18.3°F-7.6°C 12.2°F-11.0°C 79% Calm Calm -- 28.91 in979.0 mb 0.00 in0.0 mm 0.00 in0.0 mm 0.00 in0.0 mm
07:55 AM 18.3°F-7.6°C 12.2°F-11.0°C 79% Calm Calm -- 28.91 in979.0 mb 0.00 in0.0 mm 0.00 in0.0 mm 0.00 in0.0 mm
08:00 AM 18.5°F-7.5°C 12.2°F-11.0°C 79% Calm Calm -- 28.91 in979.0 mb 0.00 in0.0 mm 0.00 in0.0 mm 0.00 in0.0 mm
08:05 AM 18.1°F-7.7°C 12.2°F-11.0°C 78% Calm Calm -- 28.91 in979.0 mb 0.00 in0.0 mm 0.00 in0.0 mm 0.00 in0.0 mm
08:10 AM 18.1°F-7.7°C 12.2°F-11.0°C 78% Calm Calm -- 28.91 in979.0 mb 0.00 in0.0 mm 0.00 in0.0 mm 0.00 in0.0 mm
08:15 AM 18.1°F-7.7°C 12.2°F-11.0°C 78% Calm Calm -- 28.88 in978.0 mb 0.00 in0.0 mm 0.00 in0.0 mm 0.00 in0.0 mm
08:20 AM 18.3°F-7.6°C 12.2°F-11.0°C 78% Calm Calm -- 28.88 in978.0 mb 0.00 in0.0 mm 0.00 in0.0 mm 0.00 in0.0 mm
08:25 AM 18.1°F-7.7°C 12.2°F-11.0°C 78% Calm Calm -- 28.88 in978.0 mb 0.00 in0.0 mm 0.00 in0.0 mm 0.00 in0.0 mm
08:30 AM 18.3°F-7.6°C 12.2°F-11.0°C 78% Calm Calm -- 28.91 in979.0 mb 0.00 in0.0 mm 0.00 in0.0 mm 0.00 in0.0 mm
08:35 AM 18.7°F-7.4°C 12.2°F-11.0°C 79% 0.1 mph NE0.2 kmh NE 1.1 mph1.8 kmh 28.91 in979.0 mb 0.00 in0.0 mm 0.00 in0.0 mm 0.00 in0.0 mm
08:40 AM 18.9°F-7.3°C 12.2°F-11.0°C 79% 0.4 mph NE0.6 kmh NE 1.3 mph2.1 kmh 28.91 in979.0 mb 0.00 in0.0 mm 0.00 in0.0 mm 0.00 in0.0 mm
08:45 AM 18.7°F-7.4°C 12.2°F-11.0°C 79% 0.3 mph NE0.5 kmh NE 1.3 mph2.1 kmh 28.91 in979.0 mb 0.00 in0.0 mm 0.00 in0.0 mm 0.00 in0.0 mm
08:50 AM 18.9°F-7.3°C 12.2°F-11.0°C 79% 0.1 mph NE0.2 kmh NE 1.1 mph1.8 kmh 28.91 in979.0 mb 0.00 in0.0 mm 0.00 in0.0 mm 0.00 in0.0 mm
08:55 AM 19.0°F-7.2°C 12.2°F-11.0°C 79% 0.1 mph ENE0.2 kmh ENE 0.9 mph1.4 kmh 28.91 in979.0 mb 0.00 in0.0 mm 0.00 in0.0 mm 0.00 in0.0 mm
09:00 AM 18.9°F-7.3°C 12.2°F-11.0°C 79% 0.1 mph ENE0.2 kmh ENE 0.9 mph1.4 kmh 28.94 in980.0 mb 0.00 in0.0 mm 0.00 in0.0 mm 0.00 in0.0 mm
09:05 AM 19.2°F-7.1°C 12.2°F-11.0°C 79% 0.2 mph ENE0.3 kmh ENE 0.9 mph1.4 kmh 28.94 in980.0 mb 0.00 in0.0 mm 0.00 in0.0 mm 0.00 in0.0 mm
09:10 AM 19.6°F-6.9°C 12.2°F-11.0°C 79% 0.2 mph ENE0.3 kmh ENE 0.9 mph1.4 kmh 28.94 in980.0 mb 0.00 in0.0 mm 0.00 in0.0 mm 0.00 in0.0 mm
09:15 AM 19.4°F-7.0°C 12.2°F-11.0°C 79% Calm Calm -- 28.85 in977.0 mb 0.00 in0.0 mm 0.00 in0.0 mm 0.00 in0.0 mm
09:20 AM 19.9°F-6.7°C 14.0°F-10.0°C 79% Calm Calm -- 28.85 in977.0 mb 0.00 in0.0 mm 0.00 in0.0 mm 0.00 in0.0 mm
09:25 AM 20.3°F-6.5°C 14.0°F-10.0°C 79% Calm Calm -- 28.85 in977.0 mb 0.00 in0.0 mm 0.00 in0.0 mm 0.00 in0.0 mm
09:30 AM 20.1°F-6.6°C 14.0°F-10.0°C 79% Calm Calm -- 28.85 in977.0 mb 0.00 in0.0 mm 0.00 in0.0 mm 0.00 in0.0 mm
09:35 AM 20.5°F-6.4°C 14.0°F-10.0°C 79% Calm Calm -- 28.85 in977.0 mb 0.00 in0.0 mm 0.00 in0.0 mm 0.00 in0.0 mm
09:40 AM 21.0°F-6.1°C 14.0°F-10.0°C 79% Calm Calm -- 28.85 in977.0 mb 0.00 in0.0 mm 0.00 in0.0 mm 0.00 in0.0 mm
09:45 AM 21.6°F-5.8°C 14.0°F-10.0°C 79% Calm Calm -- 28.85 in977.0 mb 0.00 in0.0 mm 0.00 in0.0 mm 0.00 in0.0 mm
09:50 AM 21.9°F-5.6°C 15.8°F-9.0°C 80% 0.2 mph NE0.3 kmh NE 0.9 mph1.4 kmh 28.85 in977.0 mb 0.00 in0.0 mm 0.00 in0.0 mm 0.00 in0.0 mm
09:55 AM 22.1°F-5.5°C 15.8°F-9.0°C 80% 0.2 mph NE0.3 kmh NE 0.9 mph1.4 kmh 28.85 in977.0 mb 0.00 in0.0 mm 0.00 in0.0 mm 0.00 in0.0 mm
10:00 AM 22.5°F-5.3°C 15.8°F-9.0°C 80% 0.1 mph NE0.2 kmh NE 0.9 mph1.4 kmh 28.85 in977.0 mb 0.00 in0.0 mm 0.00 in0.0 mm 0.00 in0.0 mm
10:05 AM 22.6°F-5.2°C 15.8°F-9.0°C 80% 0.1 mph WNW0.2 kmh WNW 0.9 mph1.4 kmh 28.85 in977.0 mb 0.00 in0.0 mm 0.00 in0.0 mm 0.00 in0.0 mm
10:10 AM 22.8°F-5.1°C 15.8°F-9.0°C 80% 0.1 mph WNW0.2 kmh WNW 0.9 mph1.4 kmh 28.85 in977.0 mb 0.00 in0.0 mm 0.00 in0.0 mm 0.00 in0.0 mm
10:15 AM 23.4°F-4.8°C 17.6°F-8.0°C 80% 0.1 mph WNW0.2 kmh WNW 0.9 mph1.4 kmh 28.85 in977.0 mb 0.00 in0.0 mm 0.00 in0.0 mm 0.00 in0.0 mm
10:20 AM 23.5°F-4.7°C 17.6°F-8.0°C 80% Calm Calm -- 28.85 in977.0 mb 0.00 in0.0 mm 0.00 in0.0 mm 0.00 in0.0 mm
10:25 AM 23.7°F-4.6°C 17.6°F-8.0°C 80% Calm Calm -- 28.85 in977.0 mb 0.00 in0.0 mm 0.00 in0.0 mm 0.00 in0.0 mm
10:30 AM 24.1°F-4.4°C 17.6°F-8.0°C 81% Calm Calm -- 28.82 in976.0 mb 0.00 in0.0 mm 0.00 in0.0 mm 0.00 in0.0 mm
10:35 AM 24.3°F-4.3°C 17.6°F-8.0°C 81% Calm Calm -- 28.82 in976.0 mb 0.00 in0.0 mm 0.00 in0.0 mm 0.00 in0.0 mm
10:40 AM 24.4°F-4.2°C 19.4°F-7.0°C 81% 0.2 mph WSW0.3 kmh WSW 0.9 mph1.4 kmh 28.82 in976.0 mb 0.00 in0.0 mm 0.00 in0.0 mm 0.00 in0.0 mm
10:45 AM 24.8°F-4.0°C 19.4°F-7.0°C 81% 0.2 mph WSW0.3 kmh WSW 0.9 mph1.4 kmh 28.82 in976.0 mb 0.00 in0.0 mm 0.00 in0.0 mm 0.00 in0.0 mm
10:50 AM 25.0°F-3.9°C 19.4°F-7.0°C 81% Calm Calm -- 28.82 in976.0 mb 0.00 in0.0 mm 0.00 in0.0 mm 0.00 in0.0 mm
10:55 AM 25.2°F-3.8°C 19.4°F-7.0°C 81% Calm Calm -- 28.82 in976.0 mb 0.00 in0.0 mm 0.00 in0.0 mm 0.00 in0.0 mm
11:00 AM 25.5°F-3.6°C 19.4°F-7.0°C 81% Calm Calm -- 28.82 in976.0 mb 0.00 in0.0 mm 0.00 in0.0 mm 0.00 in0.0 mm
11:05 AM 26.1°F-3.3°C 21.2°F-6.0°C 82% 0.2 mph SSW0.3 kmh SSW 1.6 mph2.6 kmh 28.82 in976.0 mb 0.00 in0.0 mm 0.00 in0.0 mm 0.00 in0.0 mm
11:10 AM 26.2°F-3.2°C 21.2°F-6.0°C 82% 0.1 mph SSW0.2 kmh SSW 1.6 mph2.6 kmh 28.82 in976.0 mb 0.00 in0.0 mm 0.00 in0.0 mm 0.00 in0.0 mm
11:15 AM 26.6°F-3.0°C 21.2°F-6.0°C 82% Calm Calm -- 28.85 in977.0 mb 0.00 in0.0 mm 0.00 in0.0 mm 0.00 in0.0 mm
11:20 AM 27.1°F-2.7°C 21.2°F-6.0°C 82% Calm Calm -- 28.85 in977.0 mb 0.00 in0.0 mm 0.00 in0.0 mm 0.00 in0.0 mm
11:25 AM 27.7°F-2.4°C 21.2°F-6.0°C 82% Calm Calm -- 28.85 in977.0 mb 0.00 in0.0 mm 0.00 in0.0 mm 0.00 in0.0 mm
11:30 AM 28.9°F-1.7°C 23.0°F-5.0°C 82% Calm Calm -- 28.82 in976.0 mb 0.00 in0.0 mm 0.00 in0.0 mm 0.00 in0.0 mm
11:35 AM 30.6°F-0.8°C 24.8°F-4.0°C 82% Calm Calm -- 28.82 in976.0 mb 0.00 in0.0 mm 0.00 in0.0 mm 0.00 in0.0 mm
11:40 AM 32.5°F0.3°C 28.4°F-2.0°C 82% 0.1 mph ENE0.2 kmh ENE 0.9 mph1.4 kmh 28.82 in976.0 mb 0.00 in0.0 mm 0.00 in0.0 mm 0.00 in0.0 mm
11:45 AM 32.2°F0.1°C 28.4°F-2.0°C 82% 0.1 mph ENE0.2 kmh ENE 0.9 mph1.4 kmh 28.82 in976.0 mb 0.00 in0.0 mm 0.00 in0.0 mm 0.00 in0.0 mm
11:50 AM 33.6°F0.9°C 30.2°F-1.0°C 82% 0.1 mph SSE0.2 kmh SSE 0.9 mph1.4 kmh 28.82 in976.0 mb 0.00 in0.0 mm 0.00 in0.0 mm 0.00 in0.0 mm
11:55 AM 34.2°F1.2°C 30.2°F-1.0°C 82% 0.1 mph SSE0.2 kmh SSE 0.9 mph1.4 kmh 28.82 in976.0 mb 0.00 in0.0 mm 0.00 in0.0 mm 0.00 in0.0 mm
12:00 PM 35.8°F2.1°C 30.2°F-1.0°C 81% 0.4 mph NE0.6 kmh NE 2.0 mph3.2 kmh 28.85 in977.0 mb 0.00 in0.0 mm 0.00 in0.0 mm 0.00 in0.0 mm
12:05 PM 36.9°F2.7°C 32.0°F0.0°C 81% 0.7 mph ENE1.1 kmh ENE 2.0 mph3.2 kmh 28.85 in977.0 mb 0.00 in0.0 mm 0.00 in0.0 mm 0.00 in0.0 mm
12:10 PM 36.5°F2.5°C 32.0°F0.0°C 80% 0.5 mph ENE0.8 kmh ENE 1.3 mph2.1 kmh 28.85 in977.0 mb 0.00 in0.0 mm 0.00 in0.0 mm 0.00 in0.0 mm
12:15 PM 37.0°F2.8°C 32.0°F0.0°C 80% 0.5 mph ENE0.8 kmh ENE 1.3 mph2.1 kmh 28.82 in976.0 mb 0.00 in0.0 mm 0.00 in0.0 mm 0.00 in0.0 mm
12:20 PM 38.3°F3.5°C 33.8°F1.0°C 79% 0.8 mph ENE1.3 kmh ENE 2.5 mph4.0 kmh 28.82 in976.0 mb 0.00 in0.0 mm 0.00 in0.0 mm 0.00 in0.0 mm
12:25 PM 38.8°F3.8°C 33.8°F1.0°C 79% 1.2 mph E1.9 kmh E 2.5 mph4.0 kmh 28.82 in976.0 mb 0.00 in0.0 mm 0.00 in0.0 mm 0.00 in0.0 mm
12:30 PM 39.6°F4.2°C 33.8°F1.0°C 78% 0.8 mph E1.3 kmh E 2.5 mph4.0 kmh 28.82 in976.0 mb 0.00 in0.0 mm 0.00 in0.0 mm 0.00 in0.0 mm
12:35 PM 39.9°F4.4°C 33.8°F1.0°C 77% 0.3 mph SSE0.5 kmh SSE 1.6 mph2.6 kmh 28.82 in976.0 mb 0.00 in0.0 mm 0.00 in0.0 mm 0.00 in0.0 mm
12:40 PM 40.5°F4.7°C 33.8°F1.0°C 76% 0.4 mph SSE0.6 kmh SSE 1.6 mph2.6 kmh 28.82 in976.0 mb 0.00 in0.0 mm 0.00 in0.0 mm 0.00 in0.0 mm
12:45 PM 41.0°F5.0°C 33.8°F1.0°C 75% 0.2 mph SE0.3 kmh SE 0.9 mph1.4 kmh 28.80 in975.3 mb 0.00 in0.0 mm 0.00 in0.0 mm 0.00 in0.0 mm
12:50 PM 40.3°F4.6°C 33.8°F1.0°C 74% 0.4 mph E0.6 kmh E 2.5 mph4.0 kmh 28.80 in975.3 mb 0.00 in0.0 mm 0.00 in0.0 mm 0.00 in0.0 mm
12:55 PM 40.8°F4.9°C 33.8°F1.0°C 74% 0.8 mph E1.3 kmh E 3.8 mph6.1 kmh 28.80 in975.3 mb 0.00 in0.0 mm 0.00 in0.0 mm 0.00 in0.0 mm
01:00 PM 41.2°F5.1°C 33.8°F1.0°C 73% 0.7 mph SE1.1 kmh SE 3.8 mph6.1 kmh 28.82 in976.0 mb 0.00 in0.0 mm 0.00 in0.0 mm 0.00 in0.0 mm
01:05 PM 41.0°F5.0°C 33.8°F1.0°C 73% 0.5 mph SE0.8 kmh SE 2.5 mph4.0 kmh 28.82 in976.0 mb 0.00 in0.0 mm 0.00 in0.0 mm 0.00 in0.0 mm
01:10 PM 41.2°F5.1°C 33.8°F1.0°C 73% 0.6 mph E1.0 kmh E 2.5 mph4.0 kmh 28.82 in976.0 mb 0.00 in0.0 mm 0.00 in0.0 mm 0.00 in0.0 mm
01:15 PM 40.8°F4.9°C 33.8°F1.0°C 72% 0.5 mph ESE0.8 kmh ESE 1.3 mph2.1 kmh 28.82 in976.0 mb 0.00 in0.0 mm 0.00 in0.0 mm 0.00 in0.0 mm
01:20 PM 40.8°F4.9°C 33.8°F1.0°C 72% 0.4 mph SE0.6 kmh SE 2.7 mph4.3 kmh 28.82 in976.0 mb 0.00 in0.0 mm 0.00 in0.0 mm 0.00 in0.0 mm
01:25 PM 40.6°F4.8°C 32.0°F0.0°C 72% 0.7 mph SE1.1 kmh SE 2.7 mph4.3 kmh 28.82 in976.0 mb 0.00 in0.0 mm 0.00 in0.0 mm 0.00 in0.0 mm
01:30 PM 40.3°F4.6°C 32.0°F0.0°C 73% 1.5 mph ESE2.4 kmh ESE 3.1 mph5.0 kmh 28.82 in976.0 mb 0.00 in0.0 mm 0.00 in0.0 mm 0.00 in0.0 mm
01:35 PM 39.9°F4.4°C 32.0°F0.0°C 73% 1.5 mph E2.4 kmh E 3.1 mph5.0 kmh 28.82 in976.0 mb 0.00 in0.0 mm 0.00 in0.0 mm 0.00 in0.0 mm
01:40 PM 39.6°F4.2°C 32.0°F0.0°C 73% 1.2 mph ENE1.9 kmh ENE 3.1 mph5.0 kmh 28.82 in976.0 mb 0.00 in0.0 mm 0.00 in0.0 mm 0.00 in0.0 mm
01:45 PM 39.0°F3.9°C 32.0°F0.0°C 73% 2.4 mph E3.9 kmh E 5.4 mph8.7 kmh 28.82 in976.0 mb 0.00 in0.0 mm 0.00 in0.0 mm 0.00 in0.0 mm
01:50 PM 39.0°F3.9°C 32.0°F0.0°C 73% 3.4 mph E5.5 kmh E 5.4 mph8.7 kmh 28.82 in976.0 mb 0.00 in0.0 mm 0.00 in0.0 mm 0.00 in0.0 mm
01:55 PM 38.7°F3.7°C 30.2°F-1.0°C 73% 2.4 mph ESE3.9 kmh ESE 5.4 mph8.7 kmh 28.82 in976.0 mb 0.00 in0.0 mm 0.00 in0.0 mm 0.00 in0.0 mm
02:00 PM 38.7°F3.7°C 32.0°F0.0°C 74% 2.4 mph E3.9 kmh E 4.7 mph7.6 kmh 28.82 in976.0 mb 0.00 in0.0 mm 0.00 in0.0 mm 0.00 in0.0 mm
02:05 PM 38.5°F3.6°C 32.0°F0.0°C 74% 2.4 mph E3.9 kmh E 4.7 mph7.6 kmh 28.82 in976.0 mb 0.00 in0.0 mm 0.00 in0.0 mm 0.00 in0.0 mm
02:10 PM 38.3°F3.5°C 32.0°F0.0°C 74% 1.2 mph ESE1.9 kmh ESE 4.0 mph6.4 kmh 28.82 in976.0 mb 0.00 in0.0 mm 0.00 in0.0 mm 0.00 in0.0 mm
02:15 PM 38.1°F3.4°C 30.2°F-1.0°C 74% 1.5 mph SE2.4 kmh SE 3.8 mph6.1 kmh 28.82 in976.0 mb 0.00 in0.0 mm 0.00 in0.0 mm 0.00 in0.0 mm
02:20 PM 37.9°F3.3°C 30.2°F-1.0°C 74% 3.5 mph E5.6 kmh E 6.0 mph9.7 kmh 28.82 in976.0 mb 0.00 in0.0 mm 0.00 in0.0 mm 0.00 in0.0 mm
02:25 PM 37.8°F3.2°C 30.2°F-1.0°C 74% 3.9 mph E6.3 kmh E 6.3 mph10.1 kmh 28.82 in976.0 mb 0.00 in0.0 mm 0.00 in0.0 mm 0.00 in0.0 mm
02:30 PM 37.6°F3.1°C 30.2°F-1.0°C 74% 3.5 mph E5.6 kmh E 6.3 mph10.1 kmh 28.80 in975.3 mb 0.00 in0.0 mm 0.00 in0.0 mm 0.00 in0.0 mm
02:35 PM 37.4°F3.0°C 30.2°F-1.0°C 74% 3.3 mph E5.3 kmh E 4.3 mph6.9 kmh 28.80 in975.3 mb 0.00 in0.0 mm 0.00 in0.0 mm 0.00 in0.0 mm
02:40 PM 37.6°F3.1°C 30.2°F-1.0°C 74% 2.9 mph E4.7 kmh E 4.3 mph6.9 kmh 28.80 in975.3 mb 0.00 in0.0 mm 0.00 in0.0 mm 0.00 in0.0 mm
02:45 PM 37.4°F3.0°C 30.2°F-1.0°C 74% 2.4 mph E3.9 kmh E 4.0 mph6.4 kmh 28.80 in975.3 mb 0.00 in0.0 mm 0.00 in0.0 mm 0.00 in0.0 mm
02:50 PM 37.2°F2.9°C 30.2°F-1.0°C 74% 2.0 mph E3.2 kmh E 3.6 mph5.8 kmh 28.80 in975.3 mb 0.00 in0.0 mm 0.00 in0.0 mm 0.00 in0.0 mm
02:55 PM 37.0°F2.8°C 30.2°F-1.0°C 74% 2.6 mph E4.2 kmh E 4.7 mph7.6 kmh 28.80 in975.3 mb 0.00 in0.0 mm 0.00 in0.0 mm 0.00 in0.0 mm
03:00 PM 37.0°F2.8°C 30.2°F-1.0°C 74% 3.3 mph E5.3 kmh E 6.5 mph10.5 kmh 28.80 in975.3 mb 0.00 in0.0 mm 0.00 in0.0 mm 0.00 in0.0 mm
03:05 PM 36.9°F2.7°C 30.2°F-1.0°C 73% 2.7 mph E4.3 kmh E 6.5 mph10.5 kmh 28.80 in975.3 mb 0.00 in0.0 mm 0.00 in0.0 mm 0.00 in0.0 mm
03:10 PM 36.5°F2.5°C 30.2°F-1.0°C 73% 1.9 mph SE3.1 kmh SE 3.6 mph5.8 kmh 28.80 in975.3 mb 0.00 in0.0 mm 0.00 in0.0 mm 0.00 in0.0 mm
03:15 PM 36.1°F2.3°C 28.4°F-2.0°C 73% 1.3 mph S2.1 kmh S 3.4 mph5.5 kmh 28.80 in975.3 mb 0.00 in0.0 mm 0.00 in0.0 mm 0.00 in0.0 mm
03:20 PM 36.0°F2.2°C 28.4°F-2.0°C 73% 0.4 mph SE0.6 kmh SE 1.3 mph2.1 kmh 28.80 in975.3 mb 0.00 in0.0 mm 0.00 in0.0 mm 0.00 in0.0 mm
03:25 PM 36.0°F2.2°C 28.4°F-2.0°C 73% 0.7 mph ESE1.1 kmh ESE 2.9 mph4.7 kmh 28.80 in975.3 mb 0.00 in0.0 mm 0.00 in0.0 mm 0.00 in0.0 mm
03:30 PM 35.8°F2.1°C 28.4°F-2.0°C 73% 2.0 mph E3.2 kmh E 3.8 mph6.1 kmh 28.80 in975.3 mb 0.00 in0.0 mm 0.00 in0.0 mm 0.00 in0.0 mm
03:35 PM 35.6°F2.0°C 28.4°F-2.0°C 74% 2.7 mph E4.3 kmh E 3.8 mph6.1 kmh 28.80 in975.3 mb 0.00 in0.0 mm 0.00 in0.0 mm 0.00 in0.0 mm
03:40 PM 35.2°F1.8°C 28.4°F-2.0°C 74% 2.8 mph E4.5 kmh E 4.9 mph7.9 kmh 28.80 in975.3 mb 0.00 in0.0 mm 0.00 in0.0 mm 0.00 in0.0 mm
03:45 PM 35.1°F1.7°C 28.4°F-2.0°C 74% 3.1 mph E5.0 kmh E 4.9 mph7.9 kmh 28.77 in974.3 mb 0.00 in0.0 mm 0.00 in0.0 mm 0.00 in0.0 mm
03:50 PM 34.7°F1.5°C 28.4°F-2.0°C 74% 3.2 mph E5.1 kmh E 4.7 mph7.6 kmh 28.77 in974.3 mb 0.00 in0.0 mm 0.00 in0.0 mm 0.00 in0.0 mm
03:55 PM 34.3°F1.3°C 26.6°F-3.0°C 74% 3.1 mph E5.0 kmh E 4.7 mph7.6 kmh 28.77 in974.3 mb 0.00 in0.0 mm 0.00 in0.0 mm 0.00 in0.0 mm
04:00 PM 34.2°F1.2°C 26.6°F-3.0°C 74% 2.9 mph E4.7 kmh E 4.0 mph6.4 kmh 28.80 in975.3 mb 0.00 in0.0 mm 0.00 in0.0 mm 0.00 in0.0 mm
04:05 PM 34.0°F1.1°C 26.6°F-3.0°C 75% 2.6 mph E4.2 kmh E 3.8 mph6.1 kmh 28.80 in975.3 mb 0.00 in0.0 mm 0.00 in0.0 mm 0.00 in0.0 mm
04:10 PM 33.8°F1.0°C 26.6°F-3.0°C 75% 2.5 mph E4.0 kmh E 3.8 mph6.1 kmh 28.80 in975.3 mb 0.00 in0.0 mm 0.00 in0.0 mm 0.00 in0.0 mm
04:15 PM 33.4°F0.8°C 26.6°F-3.0°C 75% 2.8 mph ESE4.5 kmh ESE 3.8 mph6.1 kmh 28.80 in975.3 mb 0.00 in0.0 mm 0.00 in0.0 mm 0.00 in0.0 mm
04:20 PM 33.3°F0.7°C 26.6°F-3.0°C 75% 3.1 mph E5.0 kmh E 4.7 mph7.6 kmh 28.80 in975.3 mb 0.00 in0.0 mm 0.00 in0.0 mm 0.00 in0.0 mm
04:25 PM 32.9°F0.5°C 26.6°F-3.0°C 75% 2.7 mph E4.3 kmh E 4.7 mph7.6 kmh 28.80 in975.3 mb 0.00 in0.0 mm 0.00 in0.0 mm 0.00 in0.0 mm
04:30 PM 32.7°F0.4°C 26.6°F-3.0°C 75% 2.0 mph E3.2 kmh E 4.7 mph7.6 kmh 28.80 in975.3 mb 0.00 in0.0 mm 0.00 in0.0 mm 0.00 in0.0 mm
04:35 PM 32.4°F0.2°C 26.6°F-3.0°C 75% 1.2 mph E1.9 kmh E 2.9 mph4.7 kmh 28.80 in975.3 mb 0.00 in0.0 mm 0.00 in0.0 mm 0.00 in0.0 mm
04:40 PM 32.0°F0.0°C 23.0°F-5.0°C 75% 0.8 mph E1.3 kmh E 2.9 mph4.7 kmh 28.80 in975.3 mb 0.00 in0.0 mm 0.00 in0.0 mm 0.00 in0.0 mm
04:45 PM 32.0°F0.0°C 23.0°F-5.0°C 76% 1.7 mph E2.7 kmh E 3.1 mph5.0 kmh 28.74 in973.2 mb 0.00 in0.0 mm 0.00 in0.0 mm 0.00 in0.0 mm
04:50 PM 31.8°F-0.1°C 23.0°F-5.0°C 76% 2.4 mph E3.9 kmh E 3.8 mph6.1 kmh 28.74 in973.2 mb 0.00 in0.0 mm 0.00 in0.0 mm 0.00 in0.0 mm
04:55 PM 31.5°F-0.3°C 23.0°F-5.0°C 76% 1.7 mph E2.7 kmh E 3.8 mph6.1 kmh 28.74 in973.2 mb 0.00 in0.0 mm 0.00 in0.0 mm 0.00 in0.0 mm
05:00 PM 31.3°F-0.4°C 23.0°F-5.0°C 76% 1.5 mph E2.4 kmh E 4.0 mph6.4 kmh 28.77 in974.3 mb 0.00 in0.0 mm 0.00 in0.0 mm 0.00 in0.0 mm
05:05 PM 30.9°F-0.6°C 23.0°F-5.0°C 76% 1.9 mph E3.1 kmh E 4.0 mph6.4 kmh 28.77 in974.3 mb 0.00 in0.0 mm 0.00 in0.0 mm 0.00 in0.0 mm
05:10 PM 30.7°F-0.7°C 23.0°F-5.0°C 76% 1.9 mph E3.1 kmh E 4.0 mph6.4 kmh 28.77 in974.3 mb 0.00 in0.0 mm 0.00 in0.0 mm 0.00 in0.0 mm
05:15 PM 30.4°F-0.9°C 23.0°F-5.0°C 76% 1.1 mph E1.8 kmh E 2.9 mph4.7 kmh 28.77 in974.3 mb 0.00 in0.0 mm 0.00 in0.0 mm 0.00 in0.0 mm
05:20 PM 30.2°F-1.0°C 23.0°F-5.0°C 77% 1.1 mph E1.8 kmh E 3.1 mph5.0 kmh 28.77 in974.3 mb 0.00 in0.0 mm 0.00 in0.0 mm 0.00 in0.0 mm
05:25 PM 30.4°F-0.9°C 23.0°F-5.0°C 77% 1.9 mph E3.1 kmh E 4.0 mph6.4 kmh 28.77 in974.3 mb 0.00 in0.0 mm 0.00 in0.0 mm 0.00 in0.0 mm
05:30 PM 30.9°F-0.6°C 23.0°F-5.0°C 77% 2.9 mph E4.7 kmh E 6.3 mph10.1 kmh 28.77 in974.3 mb 0.00 in0.0 mm 0.00 in0.0 mm 0.00 in0.0 mm
05:35 PM 31.1°F-0.5°C 23.0°F-5.0°C 78% 3.2 mph E5.1 kmh E 6.3 mph10.1 kmh 28.77 in974.3 mb 0.00 in0.0 mm 0.00 in0.0 mm 0.00 in0.0 mm
05:40 PM 31.1°F-0.5°C 23.0°F-5.0°C 78% 2.7 mph SE4.3 kmh SE 5.6 mph9.0 kmh 28.77 in974.3 mb 0.00 in0.0 mm 0.00 in0.0 mm 0.00 in0.0 mm
05:45 PM 31.1°F-0.5°C 23.0°F-5.0°C 78% 2.2 mph ESE3.5 kmh ESE 4.0 mph6.4 kmh 28.80 in975.3 mb 0.00 in0.0 mm 0.00 in0.0 mm 0.00 in0.0 mm
05:50 PM 30.9°F-0.6°C 23.0°F-5.0°C 78% 1.4 mph SE2.3 kmh SE 2.7 mph4.3 kmh 28.80 in975.3 mb 0.00 in0.0 mm 0.00 in0.0 mm 0.00 in0.0 mm
05:55 PM 30.9°F-0.6°C 23.0°F-5.0°C 78% 1.3 mph ESE2.1 kmh ESE 3.1 mph5.0 kmh 28.80 in975.3 mb 0.00 in0.0 mm 0.00 in0.0 mm 0.00 in0.0 mm
06:00 PM 31.1°F-0.5°C 23.0°F-5.0°C 78% 1.2 mph ESE1.9 kmh ESE 3.1 mph5.0 kmh 28.80 in975.3 mb 0.00 in0.0 mm 0.00 in0.0 mm 0.00 in0.0 mm
06:05 PM 31.1°F-0.5°C 23.0°F-5.0°C 78% 1.4 mph ESE2.3 kmh ESE 2.7 mph4.3 kmh 28.80 in975.3 mb 0.00 in0.0 mm 0.00 in0.0 mm 0.00 in0.0 mm
06:10 PM 31.1°F-0.5°C 23.0°F-5.0°C 78% 1.3 mph ESE2.1 kmh ESE 3.4 mph5.5 kmh 28.80 in975.3 mb 0.00 in0.0 mm 0.00 in0.0 mm 0.00 in0.0 mm
06:15 PM 31.1°F-0.5°C 23.0°F-5.0°C 78% 1.2 mph ESE1.9 kmh ESE 3.4 mph5.5 kmh 28.80 in975.3 mb 0.00 in0.0 mm 0.00 in0.0 mm 0.00 in0.0 mm
06:20 PM 31.3°F-0.4°C 24.8°F-4.0°C 79% 1.3 mph E2.1 kmh E 2.7 mph4.3 kmh 28.80 in975.3 mb 0.00 in0.0 mm 0.00 in0.0 mm 0.00 in0.0 mm
06:25 PM 31.3°F-0.4°C 24.8°F-4.0°C 79% 1.1 mph E1.8 kmh E 2.7 mph4.3 kmh 28.80 in975.3 mb 0.00 in0.0 mm 0.00 in0.0 mm 0.00 in0.0 mm
06:30 PM 31.3°F-0.4°C 24.8°F-4.0°C 79% 1.1 mph E1.8 kmh E 3.6 mph5.8 kmh 28.80 in975.3 mb 0.00 in0.0 mm 0.00 in0.0 mm 0.00 in0.0 mm
06:35 PM 31.3°F-0.4°C 24.8°F-4.0°C 79% 1.5 mph E2.4 kmh E 3.6 mph5.8 kmh 28.80 in975.3 mb 0.00 in0.0 mm 0.00 in0.0 mm 0.00 in0.0 mm
06:40 PM 31.3°F-0.4°C 24.8°F-4.0°C 79% 1.2 mph ENE1.9 kmh ENE 3.6 mph5.8 kmh 28.80 in975.3 mb 0.00 in0.0 mm 0.00 in0.0 mm 0.00 in0.0 mm
06:45 PM 31.3°F-0.4°C 24.8°F-4.0°C 79% 1.4 mph E2.3 kmh E 2.7 mph4.3 kmh 28.80 in975.3 mb 0.00 in0.0 mm 0.00 in0.0 mm 0.00 in0.0 mm
06:50 PM 31.3°F-0.4°C 24.8°F-4.0°C 79% 1.6 mph E2.6 kmh E 2.7 mph4.3 kmh 28.80 in975.3 mb 0.00 in0.0 mm 0.00 in0.0 mm 0.00 in0.0 mm
06:55 PM 31.3°F-0.4°C 24.8°F-4.0°C 79% 1.4 mph E2.3 kmh E 3.1 mph5.0 kmh 28.80 in975.3 mb 0.00 in0.0 mm 0.00 in0.0 mm 0.00 in0.0 mm
07:00 PM 31.5°F-0.3°C 24.8°F-4.0°C 79% 1.9 mph E3.1 kmh E 5.4 mph8.7 kmh 28.80 in975.3 mb 0.00 in0.0 mm 0.00 in0.0 mm 0.00 in0.0 mm
07:05 PM 31.1°F-0.5°C 23.0°F-5.0°C 79% 1.8 mph E2.9 kmh E 5.4 mph8.7 kmh 28.80 in975.3 mb 0.00 in0.0 mm 0.00 in0.0 mm 0.00 in0.0 mm
07:10 PM 30.9°F-0.6°C 23.0°F-5.0°C 79% 1.2 mph ENE1.9 kmh ENE 3.4 mph5.5 kmh 28.80 in975.3 mb 0.00 in0.0 mm 0.00 in0.0 mm 0.00 in0.0 mm
07:15 PM 30.4°F-0.9°C 23.0°F-5.0°C 79% 0.9 mph NE1.4 kmh NE 2.0 mph3.2 kmh 28.77 in974.3 mb 0.00 in0.0 mm 0.00 in0.0 mm 0.00 in0.0 mm
07:20 PM 30.0°F-1.1°C 23.0°F-5.0°C 79% 0.9 mph NE1.4 kmh NE 2.0 mph3.2 kmh 28.77 in974.3 mb 0.00 in0.0 mm 0.00 in0.0 mm 0.00 in0.0 mm
07:25 PM 29.7°F-1.3°C 23.0°F-5.0°C 79% 0.8 mph NE1.3 kmh NE 2.0 mph3.2 kmh 28.77 in974.3 mb 0.00 in0.0 mm 0.00 in0.0 mm 0.00 in0.0 mm
07:30 PM 29.3°F-1.5°C 23.0°F-5.0°C 79% 0.8 mph NE1.3 kmh NE 1.6 mph2.6 kmh 28.80 in975.3 mb 0.00 in0.0 mm 0.00 in0.0 mm 0.00 in0.0 mm
07:35 PM 29.1°F-1.6°C 23.0°F-5.0°C 79% 1.1 mph NE1.8 kmh NE 2.2 mph3.5 kmh 28.80 in975.3 mb 0.00 in0.0 mm 0.00 in0.0 mm 0.00 in0.0 mm
07:40 PM 28.9°F-1.7°C 23.0°F-5.0°C 79% 1.2 mph NE1.9 kmh NE 2.2 mph3.5 kmh 28.80 in975.3 mb 0.00 in0.0 mm 0.00 in0.0 mm 0.00 in0.0 mm
07:45 PM 28.8°F-1.8°C 23.0°F-5.0°C 79% 0.7 mph NE1.1 kmh NE 2.2 mph3.5 kmh 28.80 in975.3 mb 0.00 in0.0 mm 0.00 in0.0 mm 0.00 in0.0 mm
07:50 PM 28.6°F-1.9°C 21.2°F-6.0°C 79% 0.9 mph NE1.4 kmh NE 2.7 mph4.3 kmh 28.80 in975.3 mb 0.00 in0.0 mm 0.00 in0.0 mm 0.00 in0.0 mm
07:55 PM 28.6°F-1.9°C 21.2°F-6.0°C 79% 1.1 mph NE1.8 kmh NE 2.7 mph4.3 kmh 28.80 in975.3 mb 0.00 in0.0 mm 0.00 in0.0 mm 0.00 in0.0 mm
08:00 PM 28.4°F-2.0°C 21.2°F-6.0°C 79% 0.7 mph NE1.1 kmh NE 1.6 mph2.6 kmh 28.80 in975.3 mb 0.00 in0.0 mm 0.00 in0.0 mm 0.00 in0.0 mm
08:05 PM 28.2°F-2.1°C 21.2°F-6.0°C 79% 1.0 mph NE1.6 kmh NE 1.6 mph2.6 kmh 28.80 in975.3 mb 0.00 in0.0 mm 0.00 in0.0 mm 0.00 in0.0 mm
08:10 PM 28.0°F-2.2°C 21.2°F-6.0°C 79% 1.0 mph NE1.6 kmh NE 1.6 mph2.6 kmh 28.80 in975.3 mb 0.00 in0.0 mm 0.00 in0.0 mm 0.00 in0.0 mm
08:15 PM 28.0°F-2.2°C 21.2°F-6.0°C 79% 0.5 mph NE0.8 kmh NE 1.6 mph2.6 kmh 28.80 in975.3 mb 0.00 in0.0 mm 0.00 in0.0 mm 0.00 in0.0 mm
08:20 PM 27.9°F-2.3°C 21.2°F-6.0°C 79% 0.4 mph NNE0.6 kmh NNE 1.6 mph2.6 kmh 28.80 in975.3 mb 0.00 in0.0 mm 0.00 in0.0 mm 0.00 in0.0 mm
08:25 PM 27.7°F-2.4°C 21.2°F-6.0°C 79% 0.3 mph NNE0.5 kmh NNE 1.6 mph2.6 kmh 28.80 in975.3 mb 0.00 in0.0 mm 0.00 in0.0 mm 0.00 in0.0 mm
08:30 PM 27.5°F-2.5°C 21.2°F-6.0°C 79% 0.3 mph NE0.5 kmh NE 1.6 mph2.6 kmh 28.80 in975.3 mb 0.00 in0.0 mm 0.00 in0.0 mm 0.00 in0.0 mm
08:35 PM 27.5°F-2.5°C 21.2°F-6.0°C 79% 1.0 mph NE1.6 kmh NE 2.0 mph3.2 kmh 28.80 in975.3 mb 0.00 in0.0 mm 0.00 in0.0 mm 0.00 in0.0 mm
08:40 PM 27.5°F-2.5°C 21.2°F-6.0°C 80% 1.4 mph NE2.3 kmh NE 2.7 mph4.3 kmh 28.80 in975.3 mb 0.00 in0.0 mm 0.00 in0.0 mm 0.00 in0.0 mm
08:45 PM 27.3°F-2.6°C 21.2°F-6.0°C 80% 1.6 mph NE2.6 kmh NE 2.7 mph4.3 kmh 28.80 in975.3 mb 0.00 in0.0 mm 0.00 in0.0 mm 0.00 in0.0 mm
08:50 PM 27.3°F-2.6°C 21.2°F-6.0°C 80% 2.0 mph NE3.2 kmh NE 4.0 mph6.4 kmh 28.80 in975.3 mb 0.00 in0.0 mm 0.00 in0.0 mm 0.00 in0.0 mm
08:55 PM 27.3°F-2.6°C 21.2°F-6.0°C 80% 3.1 mph NE5.0 kmh NE 4.3 mph6.9 kmh 28.80 in975.3 mb 0.00 in0.0 mm 0.00 in0.0 mm 0.00 in0.0 mm
09:00 PM 27.3°F-2.6°C 21.2°F-6.0°C 80% 3.5 mph NE5.6 kmh NE 4.7 mph7.6 kmh 28.80 in975.3 mb 0.00 in0.0 mm 0.00 in0.0 mm 0.00 in0.0 mm
09:05 PM 27.3°F-2.6°C 21.2°F-6.0°C 80% 3.0 mph NE4.8 kmh NE 4.7 mph7.6 kmh 28.80 in975.3 mb 0.00 in0.0 mm 0.00 in0.0 mm 0.00 in0.0 mm
09:10 PM 27.1°F-2.7°C 21.2°F-6.0°C 80% 2.0 mph NE3.2 kmh NE 3.1 mph5.0 kmh 28.80 in975.3 mb 0.00 in0.0 mm 0.00 in0.0 mm 0.00 in0.0 mm
09:15 PM 27.0°F-2.8°C 21.2°F-6.0°C 80% 1.7 mph NE2.7 kmh NE 2.7 mph4.3 kmh 28.80 in975.3 mb 0.00 in0.0 mm 0.00 in0.0 mm 0.00 in0.0 mm
09:20 PM 27.0°F-2.8°C 21.2°F-6.0°C 80% 1.4 mph NE2.3 kmh NE 2.9 mph4.7 kmh 28.80 in975.3 mb 0.00 in0.0 mm 0.00 in0.0 mm 0.00 in0.0 mm
09:25 PM 27.0°F-2.8°C 21.2°F-6.0°C 80% 1.1 mph NE1.8 kmh NE 2.9 mph4.7 kmh 28.80 in975.3 mb 0.00 in0.0 mm 0.00 in0.0 mm 0.00 in0.0 mm
09:30 PM 26.8°F-2.9°C 21.2°F-6.0°C 80% 2.0 mph NE3.2 kmh NE 3.1 mph5.0 kmh 28.80 in975.3 mb 0.00 in0.0 mm 0.00 in0.0 mm 0.00 in0.0 mm
09:35 PM 26.8°F-2.9°C 21.2°F-6.0°C 80% 2.4 mph NE3.9 kmh NE 3.8 mph6.1 kmh 28.80 in975.3 mb 0.00 in0.0 mm 0.00 in0.0 mm 0.00 in0.0 mm
09:40 PM 26.8°F-2.9°C 21.2°F-6.0°C 80% 1.9 mph NE3.1 kmh NE 3.8 mph6.1 kmh 28.80 in975.3 mb 0.00 in0.0 mm 0.00 in0.0 mm 0.00 in0.0 mm
09:45 PM 27.0°F-2.8°C 21.2°F-6.0°C 80% 2.1 mph NE3.4 kmh NE 3.1 mph5.0 kmh 28.80 in975.3 mb 0.00 in0.0 mm 0.00 in0.0 mm 0.00 in0.0 mm
09:50 PM 27.0°F-2.8°C 21.2°F-6.0°C 80% 2.5 mph NE4.0 kmh NE 3.1 mph5.0 kmh 28.80 in975.3 mb 0.00 in0.0 mm 0.00 in0.0 mm 0.00 in0.0 mm
09:55 PM 27.0°F-2.8°C 21.2°F-6.0°C 80% 2.5 mph NE4.0 kmh NE 3.6 mph5.8 kmh 28.80 in975.3 mb 0.00 in0.0 mm 0.00 in0.0 mm 0.00 in0.0 mm
10:00 PM 27.0°F-2.8°C 21.2°F-6.0°C 80% 2.5 mph NE4.0 kmh NE 3.6 mph5.8 kmh 28.80 in975.3 mb 0.00 in0.0 mm 0.00 in0.0 mm 0.00 in0.0 mm
10:05 PM 27.0°F-2.8°C 21.2°F-6.0°C 80% 2.7 mph NE4.3 kmh NE 3.4 mph5.5 kmh 28.80 in975.3 mb 0.00 in0.0 mm 0.00 in0.0 mm 0.00 in0.0 mm
10:10 PM 27.0°F-2.8°C 21.2°F-6.0°C 80% 3.1 mph NE5.0 kmh NE 3.8 mph6.1 kmh 28.80 in975.3 mb 0.00 in0.0 mm 0.00 in0.0 mm 0.00 in0.0 mm
10:15 PM 26.8°F-2.9°C 21.2°F-6.0°C 80% 3.1 mph NE5.0 kmh NE 3.8 mph6.1 kmh 28.80 in975.3 mb 0.00 in0.0 mm 0.00 in0.0 mm 0.00 in0.0 mm
10:20 PM 26.8°F-2.9°C 21.2°F-6.0°C 80% 2.7 mph NE4.3 kmh NE 3.8 mph6.1 kmh 28.80 in975.3 mb 0.00 in0.0 mm 0.00 in0.0 mm 0.00 in0.0 mm
10:25 PM 26.8°F-2.9°C 21.2°F-6.0°C 80% 3.1 mph NE5.0 kmh NE 5.8 mph9.3 kmh 28.80 in975.3 mb 0.00 in0.0 mm 0.00 in0.0 mm 0.00 in0.0 mm
10:30 PM 26.6°F-3.0°C 21.2°F-6.0°C 80% 3.1 mph NE5.0 kmh NE 5.8 mph9.3 kmh 28.80 in975.3 mb 0.00 in0.0 mm 0.00 in0.0 mm 0.00 in0.0 mm
10:35 PM 26.8°F-2.9°C 21.2°F-6.0°C 80% 1.7 mph NE2.7 kmh NE 2.7 mph4.3 kmh 28.80 in975.3 mb 0.00 in0.0 mm 0.00 in0.0 mm 0.00 in0.0 mm
10:40 PM 26.6°F-3.0°C 21.2°F-6.0°C 80% 1.8 mph NE2.9 kmh NE 3.1 mph5.0 kmh 28.80 in975.3 mb 0.00 in0.0 mm 0.00 in0.0 mm 0.00 in0.0 mm
10:45 PM 26.8°F-2.9°C 21.2°F-6.0°C 80% 2.3 mph NE3.7 kmh NE 4.3 mph6.9 kmh 28.80 in975.3 mb 0.00 in0.0 mm 0.00 in0.0 mm 0.00 in0.0 mm
10:50 PM 26.8°F-2.9°C 21.2°F-6.0°C 80% 2.7 mph NE4.3 kmh NE 4.3 mph6.9 kmh 28.80 in975.3 mb 0.00 in0.0 mm 0.00 in0.0 mm 0.00 in0.0 mm
10:55 PM 26.8°F-2.9°C 21.2°F-6.0°C 80% 2.4 mph NE3.9 kmh NE 3.8 mph6.1 kmh 28.80 in975.3 mb 0.00 in0.0 mm 0.00 in0.0 mm 0.00 in0.0 mm
11:00 PM 26.8°F-2.9°C 21.2°F-6.0°C 80% 2.1 mph NE3.4 kmh NE 2.9 mph4.7 kmh 28.80 in975.3 mb 0.00 in0.0 mm 0.00 in0.0 mm 0.00 in0.0 mm
11:05 PM 26.8°F-2.9°C 21.2°F-6.0°C 80% 2.1 mph NE3.4 kmh NE 3.4 mph5.5 kmh 28.80 in975.3 mb 0.00 in0.0 mm 0.00 in0.0 mm 0.00 in0.0 mm
11:10 PM 26.8°F-2.9°C 21.2°F-6.0°C 80% 1.9 mph NE3.1 kmh NE 3.4 mph5.5 kmh 28.80 in975.3 mb 0.00 in0.0 mm 0.00 in0.0 mm 0.00 in0.0 mm
11:15 PM 27.0°F-2.8°C 21.2°F-6.0°C 80% 1.9 mph NE3.1 kmh NE 3.4 mph5.5 kmh 28.62 in969.2 mb 0.00 in0.0 mm 0.00 in0.0 mm 0.00 in0.0 mm
11:20 PM 27.0°F-2.8°C 21.2°F-6.0°C 80% 2.1 mph NE3.4 kmh NE 3.6 mph5.8 kmh 28.62 in969.2 mb 0.00 in0.0 mm 0.00 in0.0 mm 0.00 in0.0 mm
11:25 PM 26.8°F-2.9°C 21.2°F-6.0°C 80% 2.1 mph NE3.4 kmh NE 3.6 mph5.8 kmh 28.62 in969.2 mb 0.00 in0.0 mm 0.00 in0.0 mm 0.00 in0.0 mm
11:30 PM 26.8°F-2.9°C 21.2°F-6.0°C 80% 2.2 mph NE3.5 kmh NE 3.6 mph5.8 kmh 28.77 in974.3 mb 0.00 in0.0 mm 0.00 in0.0 mm 0.00 in0.0 mm
11:35 PM 26.8°F-2.9°C 21.2°F-6.0°C 80% 2.5 mph NE4.0 kmh NE 3.6 mph5.8 kmh 28.77 in974.3 mb 0.00 in0.0 mm 0.00 in0.0 mm 0.00 in0.0 mm
11:40 PM 27.0°F-2.8°C 21.2°F-6.0°C 80% 2.7 mph NE4.3 kmh NE 3.6 mph5.8 kmh 28.77 in974.3 mb 0.00 in0.0 mm 0.00 in0.0 mm 0.00 in0.0 mm
11:45 PM 27.1°F-2.7°C 21.2°F-6.0°C 80% 2.4 mph NE3.9 kmh NE 3.6 mph5.8 kmh 28.80 in975.3 mb 0.00 in0.0 mm 0.00 in0.0 mm 0.00 in0.0 mm
11:50 PM 27.3°F-2.6°C 21.2°F-6.0°C 80% 2.6 mph NE4.2 kmh NE 3.6 mph5.8 kmh 28.80 in975.3 mb 0.00 in0.0 mm 0.00 in0.0 mm 0.00 in0.0 mm
11:55 PM 27.1°F-2.7°C 21.2°F-6.0°C 80% 2.9 mph NE4.7 kmh NE 3.8 mph6.1 kmh 28.80 in975.3 mb 0.00 in0.0 mm 0.00 in0.0 mm 0.00 in0.0 mm